Melocheville, Canada
Current Conditions -  °F | °C
As of 4:00 AM on Friday 31 Oct 2014 (Local Time) from CYUL Reporting Station
Overcast Overcast  
Wind Chill: 36°   Ceiling: 17000
Heat Index: 36°   Visibility: 15mi
Dew Point: 30°   Wind: 3mph
Humidity: 81%   Direction: 300°WNW
Pressure: 30.03"   Gusts: NA
Location:  45.32°N, 73.93°W
Report Text: CYUL 310800Z 30003KT 15SM FEW010 FEW040 OVC170 02/M01 A3003 RMK SF1SC1AS7 SF TR SLP169
Loading
Personal Weather Stations






























Interactive Weather Map
Tropical Storm Tracking
New forecast layout! Learn more

10-Day Weather Forecast

Advertisements
Track Severe Weather on mobile